Metropolitan Oakland International Airport
KOAK : rendu visible

Aérodrome :











RETROUVEZ-NOUS SUR...

 
LOGIN :

S'inscrire | Disclaimer

   EN    FR    IT 

 









Légende :    VFR   VFR Marginal   IFR   IFR Intensif   IFR Très Intensif
Visi : 
Plafond : 
>= 8 km
>= 3000ft
5 à 8 km
1000 à 3000 ft
1500m à 5 km
500 à 1000 ft
800 à 1500m
200 à 500 ft
< 800m
< 200 ft
Symboles :   Orages  Brouillard  Fortes neiges  Fortes précipitations  Vent > 20 kt






- Altitude de l'aérodrome : 9 ft
- Code IATA : OAK


KOAK - Metropolitan Oakland International

DERNIER METAR :
  • 290553Z 18006KT 10SM FEW014 SCT033 BKN055 OVC160 12/08 A3015 RMK AO2 RAE13 SLP209 P0000 60001 T01220083 10150 20122 50001 $

METARs EXPIRÉS :
  • 290453Z 21006KT 10SM -RA FEW016 BKN055 OVC090 13/08 A3016 RMK AO2 RAB50 SLP211 P0000 T01280083 $
  • 290353Z 21004KT 10SM FEW016 BKN060 OVC090 13/09 A3015 RMK AO2 RAE38 SLP209 P0001 T01280089 $

TAF KOAK
Valide du 29 à 06h jusqu'au 30 à 12h UTC


290541Z 2906/3012 19004KT P6SM VCSH BKN050 OVC070
FM291100 15006KT P6SM -SHRA BKN030 OVC050
TEMPO 2911/2915 3SM SHRA BR OVC030
FM291500 15010KT 5SM -SHRA BR BKN015 OVC030
FM292000 27012KT P6SM VCSH SCT030 BKN040
FM300500 25008KT P6SM SCT020 OVC025



MET'MAP, la Météo Aéronautique d'un coup d'oeil ! - Copyright ORBIFLY Décembre 2007 - Disclaimer

ORBIFLY MET'MAP TEAM :

Programmation & Développement : Alexandra Zaïnal
Sur une idée originale de : Baudouin d'Aumeries
Assistance à la programmation : Marc-Olivier Méhu
Soutien technique & logistique : Manuel Goepfert

Contact : metmap@orbifly.com




SOURCES & CREDITS :

   NOAA       Earth
Advisory